createdAt,value
2018-07-15T00:02:30.190Z,3.98
2018-07-15T00:07:34.992Z,3.85
2018-07-15T00:12:39.652Z,3.92
2018-07-15T00:17:44.468Z,4.30
2018-07-15T00:22:49.729Z,4.53
2018-07-15T00:27:54.373Z,3.90
2018-07-15T00:33:07.004Z,4.62
2018-07-15T00:38:11.755Z,4.22
2018-07-15T00:43:16.680Z,4.25
2018-07-15T00:48:21.409Z,4.40
2018-07-15T00:53:26.876Z,5.20
2018-07-15T00:58:31.523Z,4.60
2018-07-15T01:03:36.644Z,4.85
2018-07-15T01:08:41.402Z,5.00
2018-07-15T01:13:46.245Z,5.37
2018-07-15T01:18:51.166Z,5.75
2018-07-15T01:23:55.817Z,5.50
2018-07-15T01:29:00.497Z,5.72
2018-07-15T01:34:05.099Z,5.47
2018-07-15T01:39:09.683Z,5.22
2018-07-15T01:44:14.328Z,5.97
2018-07-15T01:49:18.881Z,4.85
2018-07-15T01:54:23.710Z,5.08
2018-07-15T01:59:28.523Z,5.30
2018-07-15T02:04:33.187Z,5.35
2018-07-15T02:09:37.724Z,5.25
2018-07-15T02:14:42.464Z,5.78
2018-07-15T02:19:47.304Z,5.33
2018-07-15T02:24:52.378Z,5.92
2018-07-15T02:29:57.671Z,5.42
2018-07-15T02:35:02.600Z,5.20
2018-07-15T02:40:07.546Z,5.22
2018-07-15T02:45:12.387Z,4.33
2018-07-15T02:50:17.569Z,4.72
2018-07-15T02:55:22.262Z,4.80
2018-07-15T03:00:28.839Z,4.33
2018-07-15T03:05:33.436Z,4.58
2018-07-15T03:10:38.135Z,4.05
2018-07-15T03:15:43.351Z,4.87
2018-07-15T03:20:48.205Z,3.92
2018-07-15T03:25:53.472Z,3.95
2018-07-15T03:30:58.290Z,4.12
2018-07-15T03:36:02.856Z,3.87
2018-07-15T03:41:09.230Z,3.67
2018-07-15T03:46:13.953Z,3.75
2018-07-15T03:51:18.341Z,3.60
2018-07-15T03:56:22.980Z,3.30
2018-07-15T04:01:27.732Z,3.40
2018-07-15T04:06:32.363Z,3.25
2018-07-15T04:11:37.501Z,3.72
2018-07-15T04:16:42.788Z,3.62
2018-07-15T04:21:47.396Z,4.45
2018-07-15T04:26:52.134Z,4.55
2018-07-15T04:31:56.755Z,4.55
2018-07-15T04:37:01.489Z,5.28
2018-07-15T04:42:06.527Z,5.40
2018-07-15T04:47:11.047Z,5.15
2018-07-15T04:52:15.828Z,5.03
2018-07-15T04:57:20.766Z,4.92
2018-07-15T05:02:25.705Z,4.95
2018-07-15T05:07:30.321Z,3.55
2018-07-15T05:12:35.245Z,5.00
2018-07-15T05:17:39.941Z,4.40
2018-07-15T05:22:44.634Z,4.97
2018-07-15T05:27:49.565Z,3.80
2018-07-15T05:32:54.320Z,4.20
2018-07-15T05:37:59.154Z,4.70
2018-07-15T05:43:03.878Z,4.47
2018-07-15T05:48:09.321Z,4.33
2018-07-15T05:53:14.058Z,4.15
2018-07-15T05:58:19.094Z,4.40
2018-07-15T06:03:23.532Z,3.98
2018-07-15T06:08:28.401Z,4.35
2018-07-15T06:13:33.224Z,4.85
2018-07-15T06:18:37.875Z,4.28
2018-07-15T06:23:42.507Z,4.70
2018-07-15T06:28:47.290Z,4.17
2018-07-15T06:33:51.943Z,4.50
2018-07-15T06:38:56.618Z,3.50
2018-07-15T06:44:01.426Z,2.87
2018-07-15T06:49:06.270Z,3.12
2018-07-15T06:54:10.924Z,3.30
2018-07-15T06:59:15.768Z,3.20
2018-07-15T07:04:20.541Z,3.15
2018-07-15T07:09:25.279Z,2.92
2018-07-15T07:14:30.374Z,2.85
2018-07-15T07:19:35.285Z,3.90
2018-07-15T07:24:39.981Z,3.10
2018-07-15T07:29:44.854Z,3.30
2018-07-15T07:34:49.633Z,3.12
2018-07-15T07:39:54.130Z,3.27
2018-07-15T07:44:58.959Z,3.00
2018-07-15T07:50:04.363Z,3.20
2018-07-15T07:55:08.990Z,3.20
2018-07-15T08:00:13.699Z,3.08
2018-07-15T08:05:19.330Z,2.70
2018-07-15T08:10:24.217Z,2.33
2018-07-15T08:15:29.680Z,2.22
2018-07-15T08:20:34.331Z,2.40
2018-07-15T08:25:39.298Z,2.58
2018-07-15T08:30:54.878Z,2.05
2018-07-15T08:35:59.692Z,2.05
2018-07-15T08:41:03.933Z,2.30
2018-07-15T08:46:09.460Z,1.98
2018-07-15T08:51:14.632Z,2.62
2018-07-15T08:56:19.651Z,2.50
2018-07-15T09:01:24.371Z,2.27
2018-07-15T09:06:29.134Z,2.15
2018-07-15T09:11:33.628Z,2.40
2018-07-15T09:16:38.622Z,1.80
2018-07-15T09:21:43.432Z,2.35
2018-07-15T09:26:48.354Z,2.40
2018-07-15T09:31:53.090Z,3.08
2018-07-15T09:36:57.828Z,3.27
2018-07-15T09:42:02.674Z,3.52
2018-07-15T09:47:08.008Z,2.50
2018-07-15T09:52:12.808Z,2.33
2018-07-15T09:57:18.012Z,2.30
2018-07-15T10:02:22.739Z,2.55
2018-07-15T10:07:27.494Z,2.65
2018-07-15T10:12:32.419Z,2.65
2018-07-15T10:17:37.149Z,2.45
2018-07-15T10:22:41.992Z,2.17
2018-07-15T10:27:47.476Z,2.05
2018-07-15T10:32:52.451Z,2.33
2018-07-15T10:37:57.117Z,2.40
2018-07-15T10:43:01.724Z,2.50
2018-07-15T10:48:06.359Z,2.72
2018-07-15T10:53:11.230Z,2.55
2018-07-15T10:58:16.080Z,2.40
2018-07-15T11:03:20.837Z,2.37
2018-07-15T11:08:25.493Z,2.65
2018-07-15T11:13:30.730Z,2.77
2018-07-15T11:18:35.379Z,3.22
2018-07-15T11:23:40.089Z,3.02
2018-07-15T11:28:44.634Z,3.35
2018-07-15T11:33:49.354Z,2.95
2018-07-15T11:38:54.337Z,2.87
2018-07-15T11:43:58.986Z,3.08
2018-07-15T11:49:03.861Z,3.10
2018-07-15T11:54:08.672Z,2.67
2018-07-15T11:59:13.444Z,3.20
2018-07-15T12:04:17.952Z,2.85
2018-07-15T12:09:22.906Z,2.42
2018-07-15T12:14:27.711Z,2.70
2018-07-15T12:19:32.393Z,2.65
2018-07-15T12:24:36.979Z,2.55
2018-07-15T12:29:41.756Z,2.60
2018-07-15T12:34:46.562Z,2.60
2018-07-15T12:39:51.191Z,2.90
2018-07-15T12:44:55.824Z,2.58
2018-07-15T12:50:00.756Z,2.42
2018-07-15T12:55:05.328Z,2.67
2018-07-15T13:00:10.846Z,2.33
2018-07-15T13:05:15.730Z,2.22
2018-07-15T13:10:20.423Z,2.60
2018-07-15T13:15:25.190Z,2.12
2018-07-15T13:20:30.016Z,2.33
2018-07-15T13:25:34.741Z,2.00
2018-07-15T13:30:39.647Z,1.70
2018-07-15T13:35:44.550Z,1.70
2018-07-15T13:40:49.194Z,2.20
2018-07-15T13:45:54.277Z,2.30
2018-07-15T13:50:59.238Z,2.25
2018-07-15T13:56:04.284Z,2.15
2018-07-15T14:01:09.189Z,2.42
2018-07-15T14:06:14.672Z,2.40
2018-07-15T14:11:19.544Z,2.08
2018-07-15T14:16:24.530Z,1.90
2018-07-15T14:21:29.493Z,1.57
2018-07-15T14:26:34.159Z,1.80
2018-07-15T14:31:38.791Z,1.98
2018-07-15T14:36:43.530Z,2.00
2018-07-15T14:41:48.686Z,1.92
2018-07-15T14:46:53.281Z,2.00
2018-07-15T14:51:58.009Z,1.90
2018-07-15T14:57:02.903Z,2.08
2018-07-15T15:02:08.028Z,2.08
2018-07-15T15:07:12.744Z,1.92
2018-07-15T15:12:17.629Z,2.15
2018-07-15T15:17:22.973Z,2.08
2018-07-15T15:22:27.756Z,1.98
2018-07-15T15:27:32.525Z,2.35
2018-07-15T15:32:37.241Z,2.00
2018-07-15T15:37:42.684Z,2.58
2018-07-15T15:42:47.447Z,2.30
2018-07-15T15:47:52.030Z,2.50
2018-07-15T15:52:57.732Z,2.10
2018-07-15T15:58:02.713Z,2.20
2018-07-15T16:03:08.016Z,1.90
2018-07-15T16:08:12.741Z,2.15
2018-07-15T16:13:17.686Z,2.17
2018-07-15T16:18:22.616Z,2.40
2018-07-15T16:23:27.494Z,2.47
2018-07-15T16:28:32.365Z,2.70
2018-07-15T16:33:37.343Z,2.60
2018-07-15T16:38:42.151Z,2.50
2018-07-15T16:43:47.868Z,2.77
2018-07-15T16:48:52.670Z,2.58
2018-07-15T16:53:57.179Z,2.30
2018-07-15T16:59:01.790Z,2.35
2018-07-15T17:04:06.757Z,2.12
2018-07-15T17:09:11.512Z,1.62
2018-07-15T17:14:16.263Z,2.25
2018-07-15T17:19:20.829Z,2.40
2018-07-15T17:24:25.016Z,2.55
2018-07-15T17:29:30.422Z,1.12
2018-07-15T17:35:59.553Z,1.20
2018-07-15T17:41:04.332Z,1.40
2018-07-15T17:46:09.259Z,1.52
2018-07-15T17:51:13.878Z,1.00
2018-07-15T17:56:18.822Z,1.00
2018-07-15T18:01:23.660Z,0.80
2018-07-15T18:06:28.614Z,0.90
2018-07-15T18:11:34.012Z,0.90
2018-07-15T18:16:38.838Z,0.90
2018-07-15T18:21:44.399Z,1.10
2018-07-15T18:26:48.563Z,1.15
2018-07-15T18:31:53.692Z,1.20
2018-07-15T18:36:58.450Z,1.27
2018-07-15T18:42:03.040Z,1.85
2018-07-15T18:47:07.693Z,1.10
2018-07-15T18:52:12.344Z,0.93
2018-07-15T18:57:16.988Z,1.00
2018-07-15T19:02:22.538Z,1.20
2018-07-15T19:07:27.148Z,0.95
2018-07-15T19:12:32.035Z,1.07
2018-07-15T19:17:36.624Z,1.20
2018-07-15T19:22:41.174Z,1.30
2018-07-15T19:27:46.073Z,1.72
2018-07-15T19:32:50.806Z,1.35
2018-07-15T19:37:55.408Z,1.55
2018-07-15T19:43:00.102Z,1.40
2018-07-15T19:48:05.025Z,1.47
2018-07-15T19:53:10.156Z,1.25
2018-07-15T19:58:15.347Z,1.15
2018-07-15T20:03:21.288Z,1.57
2018-07-15T20:08:27.328Z,1.85
2018-07-15T20:13:32.088Z,1.62
2018-07-15T20:18:36.863Z,1.98
2018-07-15T20:23:41.669Z,1.50
2018-07-15T20:28:46.628Z,1.85
2018-07-15T20:33:51.609Z,2.15
2018-07-15T20:38:57.032Z,1.70
2018-07-15T20:44:01.728Z,1.72
2018-07-15T20:49:06.524Z,1.95
2018-07-15T20:54:11.283Z,1.72
2018-07-15T20:59:16.597Z,1.85
2018-07-15T21:04:21.492Z,1.70
2018-07-15T21:09:26.233Z,1.65
2018-07-15T21:14:31.167Z,1.77
2018-07-15T21:19:36.063Z,2.22
2018-07-15T21:24:41.183Z,2.47
2018-07-15T21:29:45.864Z,2.60
2018-07-15T21:34:50.154Z,2.47
2018-07-15T21:39:54.824Z,2.90
2018-07-15T21:45:00.567Z,2.80
2018-07-15T21:50:05.929Z,2.87
2018-07-15T21:55:11.215Z,2.45
2018-07-15T22:00:15.826Z,2.77
2018-07-15T22:05:20.323Z,2.42
2018-07-15T22:10:37.502Z,2.77
2018-07-15T22:15:42.447Z,2.42
2018-07-15T22:20:48.177Z,2.75
2018-07-15T22:25:52.763Z,2.80
2018-07-15T22:30:57.498Z,2.72
2018-07-15T22:36:02.300Z,2.62
2018-07-15T22:41:06.880Z,2.60
2018-07-15T22:46:11.587Z,2.52
2018-07-15T22:51:16.254Z,3.00
2018-07-15T22:56:20.806Z,3.10
2018-07-15T23:01:26.085Z,2.40
2018-07-15T23:06:31.432Z,2.50
2018-07-15T23:11:36.182Z,2.60
2018-07-15T23:16:41.247Z,2.58
2018-07-15T23:21:46.563Z,2.60
2018-07-15T23:26:51.141Z,2.45
2018-07-15T23:31:55.791Z,2.65
2018-07-15T23:37:00.442Z,2.40
2018-07-15T23:42:05.255Z,2.37
2018-07-15T23:47:10.194Z,2.47
2018-07-15T23:52:14.795Z,2.80
2018-07-15T23:57:19.528Z,2.77
